Time;durP1;ratioP1;P1;durP2;ratioP2;P2;SDS_P1;SDS_P2;PMS_P1;PMS_P2;Temp;Humidity;BMP_temperature;BMP_pressure;BME280_temperature;BME280_humidity;BME280_pressure;Samples;Min_cycle;Max_cycle;Signal;HPM_P1;HPM_P2
2024/01/14 00:01:59;;;;;;;14.77;10.57;;;;;;;;;;5090784;28;20575;-80
2024/01/14 00:04:26;;;;;;;21.37;14.17;;;;;;;;;;5089938;28;20454;-79
2024/01/14 00:06:53;;;;;;;20.10;12.87;;;;;;;;;;5090585;28;20204;-79
2024/01/14 00:09:20;;;;;;;20.70;14.00;;;;;;;;;;5090494;28;20200;-78
2024/01/14 00:11:48;;;;;;;20.27;12.70;;;;;;;;;;5090779;28;20636;-80
2024/01/14 00:14:15;;;;;;;28.03;17.27;;;;;;;;;;5090206;28;20261;-80
2024/01/14 00:16:43;;;;;;;27.40;17.23;;;;;;;;;;5090570;28;20215;-80
2024/01/14 00:19:10;;;;;;;26.63;15.20;;;;;;;;;;5090116;28;20489;-79
2024/01/14 00:21:37;;;;;;;22.43;14.73;;;;;;;;;;5090378;28;20222;-80
2024/01/14 00:24:04;;;;;;;22.57;12.67;;;;;;;;;;5090359;28;20593;-80
2024/01/14 00:26:32;;;;;;;20.03;14.70;;;;;;;;;;5090578;28;20280;-81
2024/01/14 00:28:59;;;;;;;23.07;15.57;;;;;;;;;;5090289;28;20470;-80
2024/01/14 00:31:26;;;;;;;28.20;17.90;;;;;;;;;;5090116;28;20207;-80
2024/01/14 00:33:54;;;;;;;26.67;18.20;;;;;;;;;;5090180;28;20211;-80
2024/01/14 00:36:21;;;;;;;30.93;19.73;;;;;;;;;;5090544;28;20208;-80
2024/01/14 00:38:48;;;;;;;25.30;18.07;;;;;;;;;;5090121;28;20220;-80
2024/01/14 00:41:15;;;;;;;27.17;18.13;;;;;;;;;;5090187;28;20882;-80
2024/01/14 00:43:42;;;;;;;28.40;18.03;;;;;;;;;;5089890;28;20533;-80
2024/01/14 00:46:08;;;;;;;28.73;15.23;;;;;;;;;;5090218;28;20638;-80
2024/01/14 00:48:38;;;;;;;20.20;13.23;;;;;;;;;;5090541;28;20196;-80
2024/01/14 00:51:06;;;;;;;19.57;13.50;;;;;;;;;;5089997;28;20458;-80
2024/01/14 00:53:33;;;;;;;20.53;13.60;;;;;;;;;;5089897;28;20583;-80
2024/01/14 00:56:00;;;;;;;19.13;11.60;;;;;;;;;;5092130;28;20450;-80
2024/01/14 00:58:27;;;;;;;18.10;12.03;;;;;;;;;;5093591;28;20239;-80
2024/01/14 01:00:54;;;;;;;19.33;13.67;;;;;;;;;;5093858;28;20461;-79
2024/01/14 01:03:21;;;;;;;16.73;12.43;;;;;;;;;;5093521;28;20529;-80
2024/01/14 01:05:47;;;;;;;18.30;13.23;;;;;;;;;;5093752;28;20450;-80
2024/01/14 01:08:16;;;;;;;18.20;11.57;;;;;;;;;;5093533;28;20208;-80
2024/01/14 01:10:42;;;;;;;16.43;10.30;;;;;;;;;;5093105;28;20975;-80
2024/01/14 01:13:09;;;;;;;14.63;9.83;;;;;;;;;;5093092;28;20446;-80
2024/01/14 01:15:36;;;;;;;16.43;11.40;;;;;;;;;;5093265;28;20869;-81
2024/01/14 01:18:03;;;;;;;12.57;10.40;;;;;;;;;;5093250;28;21014;-81
2024/01/14 01:20:31;;;;;;;14.03;10.07;;;;;;;;;;5093334;28;20442;-81
2024/01/14 01:22:57;;;;;;;13.50;8.40;;;;;;;;;;5093304;28;20450;-80
2024/01/14 01:25:26;;;;;;;12.53;10.23;;;;;;;;;;5093128;28;20851;-79
2024/01/14 01:27:53;;;;;;;14.23;9.33;;;;;;;;;;5092957;28;20274;-80
2024/01/14 01:30:20;;;;;;;10.70;7.23;;;;;;;;;;5093297;28;20874;-80
2024/01/14 01:32:46;;;;;;;12.60;9.40;;;;;;;;;;5092789;28;20879;-80
2024/01/14 01:35:13;;;;;;;18.27;12.73;;;;;;;;;;5093038;28;20516;-81
2024/01/14 01:37:40;;;;;;;17.77;10.80;;;;;;;;;;5092726;28;20465;-81
2024/01/14 01:40:09;;;;;;;23.87;13.07;;;;;;;;;;5093219;28;20478;-81
2024/01/14 01:42:37;;;;;;;13.50;9.80;;;;;;;;;;5092689;28;20485;-81
2024/01/14 01:45:06;;;;;;;12.03;8.90;;;;;;;;;;5093024;28;20442;-79
2024/01/14 01:47:33;;;;;;;13.87;9.63;;;;;;;;;;5092669;28;20446;-80
2024/01/14 01:50:00;;;;;;;12.03;8.80;;;;;;;;;;5092890;28;20503;-80
2024/01/14 01:52:27;;;;;;;15.70;9.10;;;;;;;;;;5093038;28;20450;-80
2024/01/14 01:54:54;;;;;;;12.97;9.23;;;;;;;;;;5092343;28;20548;-79
2024/01/14 01:57:22;;;;;;;12.17;8.63;;;;;;;;;;5092695;28;20485;-80
2024/01/14 01:59:50;;;;;;;12.77;8.33;;;;;;;;;;5092842;28;20488;-79
2024/01/14 02:02:17;;;;;;;12.50;7.77;;;;;;;;;;5092236;28;20446;-81
2024/01/14 02:04:43;;;;;;;11.97;8.27;;;;;;;;;;5092305;28;20197;-81
2024/01/14 02:07:10;;;;;;;14.03;9.27;;;;;;;;;;5092023;28;20883;-81
2024/01/14 02:09:38;;;;;;;20.00;12.70;;;;;;;;;;5092176;28;20463;-80
2024/01/14 02:12:05;;;;;;;17.83;11.77;;;;;;;;;;5092498;28;20459;-81
2024/01/14 02:14:31;;;;;;;15.53;9.87;;;;;;;;;;5091998;28;20450;-80
2024/01/14 02:16:59;;;;;;;15.33;9.90;;;;;;;;;;5092281;28;20446;-81
2024/01/14 02:19:26;;;;;;;15.37;10.17;;;;;;;;;;5091948;28;20485;-80
2024/01/14 02:21:58;;;;;;;12.07;8.70;;;;;;;;;;5092059;28;20464;-80
2024/01/14 02:24:28;;;;;;;12.77;9.00;;;;;;;;;;5092064;28;20454;-81
2024/01/14 02:26:55;;;;;;;12.53;9.20;;;;;;;;;;5092164;28;20457;-80
2024/01/14 02:29:22;;;;;;;12.83;8.97;;;;;;;;;;5091388;28;20867;-80
2024/01/14 02:31:49;;;;;;;14.37;9.70;;;;;;;;;;5091343;28;20442;-80
2024/01/14 02:34:16;;;;;;;13.27;9.07;;;;;;;;;;5091362;28;20445;-81
2024/01/14 02:36:43;;;;;;;13.67;8.67;;;;;;;;;;5091744;28;20690;-81
2024/01/14 02:39:12;;;;;;;14.57;9.93;;;;;;;;;;5091719;28;20482;-81
2024/01/14 02:41:40;;;;;;;23.53;14.60;;;;;;;;;;5091736;28;20503;-81
2024/01/14 02:44:07;;;;;;;55.57;31.37;;;;;;;;;;5091663;28;20453;-81
2024/01/14 02:46:35;;;;;;;38.27;22.53;;;;;;;;;;5091786;28;20459;-80
2024/01/14 02:49:01;;;;;;;19.43;12.23;;;;;;;;;;5091539;28;20980;-81
2024/01/14 02:51:28;;;;;;;16.40;9.43;;;;;;;;;;5091537;28;20458;-79
2024/01/14 02:53:55;;;;;;;17.07;11.70;;;;;;;;;;5091563;28;20446;-79
2024/01/14 02:56:22;;;;;;;23.20;11.60;;;;;;;;;;5091525;28;20449;-79
2024/01/14 02:58:50;;;;;;;18.43;12.17;;;;;;;;;;5091587;28;20478;-78
2024/01/14 03:01:17;;;;;;;17.43;11.70;;;;;;;;;;5094146;28;20445;-79
2024/01/14 03:03:44;;;;;;;16.23;11.77;;;;;;;;;;5101273;28;20454;-81
2024/01/14 03:06:10;;;;;;;18.50;11.60;;;;;;;;;;5089717;28;20449;-79
2024/01/14 03:08:38;;;;;;;17.07;11.03;;;;;;;;;;5090737;28;20652;-81
2024/01/14 03:11:05;;;;;;;19.83;12.20;;;;;;;;;;5091833;28;20454;-86
2024/01/14 03:13:32;;;;;;;14.30;10.70;;;;;;;;;;5092029;28;20519;-87
2024/01/14 03:16:00;;;;;;;21.90;12.47;;;;;;;;;;5092000;28;20450;-87
2024/01/14 03:18:27;;;;;;;16.03;11.73;;;;;;;;;;5091414;28;20442;-87
2024/01/14 03:20:54;;;;;;;22.73;13.50;;;;;;;;;;5091893;28;20461;-87
2024/01/14 03:23:21;;;;;;;21.33;12.33;;;;;;;;;;5091873;28;20446;-87
2024/01/14 03:25:49;;;;;;;27.13;13.77;;;;;;;;;;5091948;28;20458;-85
2024/01/14 03:28:16;;;;;;;16.63;11.47;;;;;;;;;;5091462;28;20478;-87
2024/01/14 03:30:44;;;;;;;19.83;12.30;;;;;;;;;;5091915;28;20457;-86
2024/01/14 03:33:12;;;;;;;15.63;11.07;;;;;;;;;;5091510;28;20450;-87
2024/01/14 03:35:38;;;;;;;15.40;10.13;;;;;;;;;;5092195;28;20519;-88
2024/01/14 03:38:05;;;;;;;15.13;9.50;;;;;;;;;;5091865;28;20504;-87
2024/01/14 03:40:32;;;;;;;20.63;13.03;;;;;;;;;;5091700;28;20543;-87
2024/01/14 03:42:59;;;;;;;17.97;12.57;;;;;;;;;;5090859;28;22029;-87
2024/01/14 03:45:26;;;;;;;17.20;11.07;;;;;;;;;;5091520;28;20442;-87
2024/01/14 03:47:52;;;;;;;18.23;12.23;;;;;;;;;;5091010;28;20498;-87
2024/01/14 03:50:21;;;;;;;16.30;11.03;;;;;;;;;;5091203;28;20450;-88
2024/01/14 03:52:47;;;;;;;15.83;10.37;;;;;;;;;;5090583;28;20438;-86
2024/01/14 03:55:13;;;;;;;14.80;9.87;;;;;;;;;;5090637;28;20457;-88
2024/01/14 03:57:40;;;;;;;16.73;10.80;;;;;;;;;;5091214;28;20822;-88
2024/01/14 04:00:08;;;;;;;18.57;12.53;;;;;;;;;;5092000;28;20497;-88
2024/01/14 04:02:36;;;;;;;19.23;11.17;;;;;;;;;;5091727;28;20446;-87
2024/01/14 04:05:03;;;;;;;13.27;9.70;;;;;;;;;;5091820;28;20488;-88
2024/01/14 04:07:31;;;;;;;13.27;10.33;;;;;;;;;;5091806;28;20477;-88
2024/01/14 04:09:58;;;;;;;20.23;12.83;;;;;;;;;;5092099;28;20508;-88
2024/01/14 04:12:27;;;;;;;18.33;11.07;;;;;;;;;;5091953;28;20855;-87
2024/01/14 04:14:54;;;;;;;23.03;16.90;;;;;;;;;;5091511;28;20698;-87
2024/01/14 04:17:21;;;;;;;29.77;20.50;;;;;;;;;;5091576;28;20450;-86
2024/01/14 04:19:47;;;;;;;25.70;18.07;;;;;;;;;;5091026;28;20489;-87
2024/01/14 04:22:14;;;;;;;25.30;15.47;;;;;;;;;;5091187;28;20493;-87
2024/01/14 04:24:44;;;;;;;17.10;12.50;;;;;;;;;;5091035;28;20458;-87
2024/01/14 04:27:11;;;;;;;14.33;10.63;;;;;;;;;;5091198;28;20956;-87
2024/01/14 04:29:38;;;;;;;15.60;11.07;;;;;;;;;;5092794;28;20527;-87
2024/01/14 04:32:05;;;;;;;25.60;15.17;;;;;;;;;;5094882;28;20446;-87
2024/01/14 04:34:32;;;;;;;29.60;16.23;;;;;;;;;;5094787;28;20455;-85
2024/01/14 04:36:59;;;;;;;17.33;12.50;;;;;;;;;;5095467;28;20461;-87
2024/01/14 04:39:26;;;;;;;22.33;13.83;;;;;;;;;;5095010;28;20482;-86
2024/01/14 04:41:54;;;;;;;19.13;13.77;;;;;;;;;;5095286;28;20450;-87
2024/01/14 04:44:21;;;;;;;19.33;12.33;;;;;;;;;;5094836;28;20453;-87
2024/01/14 04:46:48;;;;;;;44.07;24.37;;;;;;;;;;5094918;28;20442;-87
2024/01/14 04:49:15;;;;;;;33.63;21.37;;;;;;;;;;5094764;28;20488;-88
2024/01/14 04:51:41;;;;;;;72.33;36.90;;;;;;;;;;5095167;28;20474;-88
2024/01/14 04:54:08;;;;;;;42.03;24.13;;;;;;;;;;5094901;28;20477;-87
2024/01/14 04:56:35;;;;;;;23.90;15.23;;;;;;;;;;5095112;28;20518;-87
2024/01/14 04:59:04;;;;;;;34.50;20.17;;;;;;;;;;5094533;28;20481;-87
2024/01/14 05:01:31;;;;;;;133.97;76.33;;;;;;;;;;5094438;28;20831;-87
2024/01/14 05:03:58;;;;;;;140.93;84.57;;;;;;;;;;5094660;28;20458;-87
2024/01/14 05:06:25;;;;;;;91.97;58.23;;;;;;;;;;5094929;28;20457;-87
2024/01/14 05:08:52;;;;;;;53.30;35.73;;;;;;;;;;5094026;28;20959;-85
2024/01/14 05:11:19;;;;;;;25.67;18.97;;;;;;;;;;5094405;28;20971;-87
2024/01/14 05:13:45;;;;;;;20.80;13.43;;;;;;;;;;5094478;28;20450;-87
2024/01/14 05:16:14;;;;;;;18.27;10.80;;;;;;;;;;5094661;28;20455;-86
2024/01/14 05:18:40;;;;;;;14.17;9.90;;;;;;;;;;5094675;28;20445;-86
2024/01/14 05:21:07;;;;;;;12.87;9.50;;;;;;;;;;5094118;28;20490;-87
2024/01/14 05:23:34;;;;;;;13.30;8.80;;;;;;;;;;5094591;28;20839;-87
2024/01/14 05:26:04;;;;;;;12.77;9.13;;;;;;;;;;5094044;28;20874;-87
2024/01/14 05:28:30;;;;;;;17.73;11.83;;;;;;;;;;5094129;28;20493;-86
2024/01/14 05:30:57;;;;;;;15.60;10.03;;;;;;;;;;5094254;28;20450;-87
2024/01/14 05:33:26;;;;;;;18.10;12.17;;;;;;;;;;5093920;28;20460;-87
2024/01/14 05:35:53;;;;;;;23.03;15.20;;;;;;;;;;5094074;28;20438;-87
2024/01/14 05:38:19;;;;;;;24.53;14.93;;;;;;;;;;5093374;28;20455;-87
2024/01/14 05:40:49;;;;;;;17.70;12.17;;;;;;;;;;5092942;28;20574;-87
2024/01/14 05:43:16;;;;;;;24.20;13.90;;;;;;;;;;5093612;28;20450;-86
2024/01/14 05:45:43;;;;;;;26.07;16.63;;;;;;;;;;5094110;28;20468;-87
2024/01/14 05:48:09;;;;;;;18.30;10.50;;;;;;;;;;5093249;28;20446;-87
2024/01/14 05:50:38;;;;;;;15.50;10.33;;;;;;;;;;5093883;28;20457;-88
2024/01/14 05:53:06;;;;;;;15.13;9.83;;;;;;;;;;5093684;28;20456;-86
2024/01/14 05:55:32;;;;;;;16.90;10.23;;;;;;;;;;5093967;28;20450;-87
2024/01/14 05:57:59;;;;;;;15.20;11.23;;;;;;;;;;5093720;28;20525;-88
2024/01/14 06:00:26;;;;;;;15.90;12.00;;;;;;;;;;5093373;28;20485;-87
2024/01/14 06:02:53;;;;;;;22.40;12.83;;;;;;;;;;5093632;28;20458;-87
2024/01/14 06:05:20;;;;;;;13.43;10.33;;;;;;;;;;5093292;28;20442;-88
2024/01/14 06:07:48;;;;;;;15.87;10.07;;;;;;;;;;5093533;28;20987;-87
2024/01/14 06:10:15;;;;;;;16.73;10.50;;;;;;;;;;5093698;28;20438;-88
2024/01/14 06:12:41;;;;;;;17.90;12.30;;;;;;;;;;5093266;28;20525;-87
2024/01/14 06:15:09;;;;;;;15.80;12.77;;;;;;;;;;5093339;28;20442;-85
2024/01/14 06:17:39;;;;;;;14.90;11.03;;;;;;;;;;5084410;28;20457;-81
2024/01/14 06:20:07;;;;;;;14.30;10.43;;;;;;;;;;5091875;28;20489;-81
2024/01/14 06:22:33;;;;;;;15.23;10.90;;;;;;;;;;5092116;28;20434;-81
2024/01/14 06:25:02;;;;;;;16.30;11.07;;;;;;;;;;5091385;28;20804;-81
2024/01/14 06:27:28;;;;;;;17.70;12.80;;;;;;;;;;5091413;28;20465;-83
2024/01/14 06:29:55;;;;;;;16.10;11.00;;;;;;;;;;5091808;28;20446;-80
2024/01/14 06:32:22;;;;;;;19.13;13.43;;;;;;;;;;5091819;28;20528;-81
2024/01/14 06:34:49;;;;;;;17.60;11.83;;;;;;;;;;5091421;28;20499;-82
2024/01/14 06:37:16;;;;;;;17.67;11.20;;;;;;;;;;5092059;28;20457;-81
2024/01/14 06:39:42;;;;;;;15.70;9.83;;;;;;;;;;5090895;28;20477;-81
2024/01/14 06:42:11;;;;;;;18.60;12.43;;;;;;;;;;5091797;28;20438;-80
2024/01/14 06:44:38;;;;;;;52.57;29.27;;;;;;;;;;5091534;28;20527;-80
2024/01/14 06:47:05;;;;;;;46.60;31.17;;;;;;;;;;5091341;28;20465;-80
2024/01/14 06:49:32;;;;;;;73.53;45.50;;;;;;;;;;5091587;28;20454;-80
2024/01/14 06:51:59;;;;;;;58.07;32.60;;;;;;;;;;5091460;28;20450;-80
2024/01/14 06:54:25;;;;;;;42.77;25.13;;;;;;;;;;5091019;28;20462;-80
2024/01/14 06:56:52;;;;;;;29.80;19.93;;;;;;;;;;5091075;28;20447;-80
2024/01/14 06:59:21;;;;;;;38.43;23.83;;;;;;;;;;5091158;28;20450;-81
2024/01/14 07:01:49;;;;;;;44.93;24.53;;;;;;;;;;5091598;28;20453;-81
2024/01/14 07:04:16;;;;;;;31.27;18.63;;;;;;;;;;5091060;28;20450;-81
2024/01/14 07:06:43;;;;;;;43.60;21.17;;;;;;;;;;5090616;28;20450;-83
2024/01/14 07:09:12;;;;;;;51.17;24.47;;;;;;;;;;5091434;28;20465;-83
2024/01/14 07:11:39;;;;;;;75.13;35.00;;;;;;;;;;5091147;28;20454;-82
2024/01/14 07:14:05;;;;;;;34.30;21.83;;;;;;;;;;5078053;28;20454;-84
2024/01/14 07:16:35;;;;;;;23.80;15.07;;;;;;;;;;5090892;28;20892;-82
2024/01/14 07:19:02;;;;;;;23.87;15.67;;;;;;;;;;5090767;28;20982;-83
2024/01/14 07:21:29;;;;;;;27.03;18.10;;;;;;;;;;5091137;28;20486;-83
2024/01/14 07:23:56;;;;;;;31.97;19.93;;;;;;;;;;5091241;28;20450;-82
2024/01/14 07:26:22;;;;;;;31.83;19.27;;;;;;;;;;5090252;28;20460;-83
2024/01/14 07:28:51;;;;;;;21.07;15.20;;;;;;;;;;5090841;28;20722;-83
2024/01/14 07:31:20;;;;;;;22.13;16.50;;;;;;;;;;5091047;28;20902;-82
2024/01/14 07:33:50;;;;;;;24.17;17.43;;;;;;;;;;5090401;28;20207;-82
2024/01/14 07:36:18;;;;;;;27.47;18.00;;;;;;;;;;5090556;28;20454;-83
2024/01/14 07:38:45;;;;;;;27.17;17.23;;;;;;;;;;5090445;28;20694;-83
2024/01/14 07:41:15;;;;;;;25.40;16.40;;;;;;;;;;5090703;28;20231;-83
2024/01/14 07:43:42;;;;;;;68.57;38.10;;;;;;;;;;5091258;28;20219;-84
2024/01/14 07:46:09;;;;;;;52.20;32.13;;;;;;;;;;5090882;28;20215;-84
2024/01/14 07:48:39;;;;;;;59.87;34.63;;;;;;;;;;5091078;28;20258;-84
2024/01/14 07:51:07;;;;;;;42.43;27.23;;;;;;;;;;5091345;28;20201;-83
2024/01/14 07:53:35;;;;;;;40.80;26.43;;;;;;;;;;5090992;28;20227;-82
2024/01/14 07:56:03;;;;;;;40.40;25.13;;;;;;;;;;5091203;28;20203;-81
2024/01/14 07:58:30;;;;;;;30.57;21.77;;;;;;;;;;5090028;28;20215;-80
2024/01/14 08:00:57;;;;;;;35.97;22.20;;;;;;;;;;5090659;28;20273;-80
2024/01/14 08:03:23;;;;;;;29.50;20.17;;;;;;;;;;5090279;28;20200;-80
2024/01/14 08:05:50;;;;;;;29.63;21.30;;;;;;;;;;5093780;28;20658;-80
2024/01/14 08:08:19;;;;;;;31.60;20.03;;;;;;;;;;5094468;28;20215;-80
2024/01/14 08:10:46;;;;;;;35.90;22.57;;;;;;;;;;5093390;28;20208;-80
2024/01/14 08:13:13;;;;;;;34.00;22.10;;;;;;;;;;5094683;28;20228;-80
2024/01/14 08:15:40;;;;;;;35.77;23.97;;;;;;;;;;5094467;28;20203;-80
2024/01/14 08:18:07;;;;;;;26.77;17.57;;;;;;;;;;5094359;28;20204;-80
2024/01/14 08:20:34;;;;;;;22.20;16.67;;;;;;;;;;5093865;28;20224;-79
2024/01/14 08:23:00;;;;;;;19.53;13.63;;;;;;;;;;5094274;28;20200;-79
2024/01/14 08:25:28;;;;;;;16.40;12.27;;;;;;;;;;5094188;28;20204;-80
2024/01/14 08:27:56;;;;;;;14.63;11.27;;;;;;;;;;5093792;28;20710;-79
2024/01/14 08:30:23;;;;;;;18.57;11.97;;;;;;;;;;5094558;28;20227;-80
2024/01/14 08:32:49;;;;;;;16.30;11.07;;;;;;;;;;5093961;28;20677;-79
2024/01/14 08:35:17;;;;;;;15.83;11.00;;;;;;;;;;5094325;28;20566;-79
2024/01/14 08:37:46;;;;;;;15.73;11.50;;;;;;;;;;5093801;28;20204;-79
2024/01/14 08:40:13;;;;;;;15.83;10.60;;;;;;;;;;5093562;28;20227;-79
2024/01/14 08:42:44;;;;;;;17.60;11.50;;;;;;;;;;5093967;28;20269;-79
2024/01/14 08:45:12;;;;;;;18.77;11.73;;;;;;;;;;5094096;28;20242;-79
2024/01/14 08:47:39;;;;;;;13.83;9.83;;;;;;;;;;5093707;28;20253;-79
2024/01/14 08:50:09;;;;;;;15.83;10.53;;;;;;;;;;5093802;28;20200;-79
2024/01/14 08:52:39;;;;;;;13.00;9.50;;;;;;;;;;5093129;28;20201;-79
2024/01/14 08:55:06;;;;;;;13.03;9.87;;;;;;;;;;5093898;28;20196;-79
2024/01/14 08:57:33;;;;;;;13.27;9.40;;;;;;;;;;5093394;28;20200;-80
2024/01/14 09:00:02;;;;;;;11.83;8.80;;;;;;;;;;5093545;28;20261;-79
2024/01/14 09:02:28;;;;;;;13.87;9.17;;;;;;;;;;5092798;28;20200;-79
2024/01/14 09:04:55;;;;;;;14.10;8.13;;;;;;;;;;5090719;28;20585;-76
2024/01/14 09:07:22;;;;;;;14.20;9.37;;;;;;;;;;5093313;28;20196;-76
2024/01/14 09:09:49;;;;;;;12.90;8.90;;;;;;;;;;5092945;28;20200;-76
2024/01/14 09:12:16;;;;;;;14.73;10.37;;;;;;;;;;5093346;28;20224;-76
2024/01/14 09:14:43;;;;;;;16.23;13.00;;;;;;;;;;5093261;28;20209;-76
2024/01/14 09:17:14;;;;;;;11.87;8.73;;;;;;;;;;5091855;28;20663;-76
2024/01/14 09:19:41;;;;;;;11.27;8.17;;;;;;;;;;5093264;28;20690;-79
2024/01/14 09:22:07;;;;;;;10.17;7.93;;;;;;;;;;5092623;28;20231;-79
2024/01/14 09:24:36;;;;;;;11.93;8.83;;;;;;;;;;5093450;28;20211;-78
2024/01/14 09:27:05;;;;;;;11.93;8.83;;;;;;;;;;5092842;28;20232;-79
2024/01/14 09:29:32;;;;;;;12.97;8.57;;;;;;;;;;5093073;28;20228;-79
2024/01/14 09:31:59;;;;;;;13.47;8.93;;;;;;;;;;5093164;28;20196;-79
2024/01/14 09:34:27;;;;;;;14.47;10.83;;;;;;;;;;5092709;28;20571;-80
2024/01/14 09:36:54;;;;;;;11.13;9.57;;;;;;;;;;5092691;28;20196;-79
2024/01/14 09:39:21;;;;;;;11.50;8.50;;;;;;;;;;5092831;28;20204;-79
2024/01/14 09:42:06;;;;;;;13.00;9.03;;;;;;;;;;5092493;28;20312;-80
2024/01/14 09:44:34;;;;;;;14.87;9.93;;;;;;;;;;5092179;28;21011;-79
2024/01/14 09:47:02;;;;;;;14.17;9.03;;;;;;;;;;5092755;28;20212;-78
2024/01/14 09:49:30;;;;;;;16.07;11.47;;;;;;;;;;5093185;28;20208;-76
2024/01/14 09:51:57;;;;;;;12.23;8.30;;;;;;;;;;5091711;28;20669;-78
2024/01/14 09:54:24;;;;;;;12.17;8.83;;;;;;;;;;5092197;28;20204;-78
2024/01/14 09:56:53;;;;;;;14.30;9.77;;;;;;;;;;5093122;28;20216;-78
2024/01/14 09:59:20;;;;;;;12.20;9.17;;;;;;;;;;5092325;28;20317;-79
2024/01/14 10:01:46;;;;;;;16.30;10.17;;;;;;;;;;5092552;28;20223;-79
2024/01/14 10:04:14;;;;;;;62.20;26.53;;;;;;;;;;5092386;28;20700;-77
2024/01/14 10:06:43;;;;;;;15.87;12.03;;;;;;;;;;5092657;28;20200;-78
2024/01/14 10:09:12;;;;;;;12.73;9.77;;;;;;;;;;5092192;28;20231;-78
2024/01/14 10:11:39;;;;;;;14.83;10.00;;;;;;;;;;5091491;28;20258;-78
2024/01/14 10:14:06;;;;;;;13.13;10.17;;;;;;;;;;5091385;28;20196;-78
2024/01/14 10:16:37;;;;;;;12.63;9.70;;;;;;;;;;5090781;28;20208;-78
2024/01/14 10:19:06;;;;;;;12.60;9.17;;;;;;;;;;5083667;28;20232;-78
2024/01/14 10:21:33;;;;;;;10.33;8.17;;;;;;;;;;5091202;28;20307;-78
2024/01/14 10:24:02;;;;;;;9.13;7.67;;;;;;;;;;5091190;28;20205;-79
2024/01/14 10:26:28;;;;;;;12.43;8.63;;;;;;;;;;5079294;28;20567;-77
2024/01/14 10:29:01;;;;;;;14.37;9.07;;;;;;;;;;5091649;28;20228;-78
2024/01/14 10:31:30;;;;;;;13.67;7.80;;;;;;;;;;5091996;28;20208;-78
2024/01/14 10:33:59;;;;;;;11.33;8.20;;;;;;;;;;5090177;28;20287;-78
2024/01/14 10:36:28;;;;;;;12.73;9.53;;;;;;;;;;5090018;28;20777;-78
2024/01/14 10:38:57;;;;;;;10.83;8.63;;;;;;;;;;5088303;28;20283;-78
2024/01/14 10:41:25;;;;;;;13.77;7.47;;;;;;;;;;5090975;28;20231;-78
2024/01/14 10:43:52;;;;;;;11.03;9.03;;;;;;;;;;5091096;28;20200;-78
2024/01/14 10:46:19;;;;;;;29.50;18.43;;;;;;;;;;5091227;28;20200;-78
2024/01/14 10:48:49;;;;;;;22.97;16.30;;;;;;;;;;5091355;28;20586;-78
2024/01/14 10:51:18;;;;;;;12.73;9.50;;;;;;;;;;5091160;28;20204;-78
2024/01/14 10:53:52;;;;;;;11.83;9.70;;;;;;;;;;5091801;28;20659;-78
2024/01/14 10:56:26;;;;;;;19.97;12.63;;;;;;;;;;5091740;28;20295;-79
2024/01/14 10:58:54;;;;;;;27.37;18.83;;;;;;;;;;5091477;28;20287;-78
2024/01/14 11:01:22;;;;;;;33.23;22.17;;;;;;;;;;5090624;28;20227;-78
2024/01/14 11:03:51;;;;;;;39.87;24.90;;;;;;;;;;5091629;28;20204;-78
2024/01/14 11:06:19;;;;;;;34.93;21.80;;;;;;;;;;5091584;28;20201;-78
2024/01/14 11:08:45;;;;;;;50.67;32.60;;;;;;;;;;5091597;28;20200;-78
2024/01/14 11:11:13;;;;;;;35.37;22.40;;;;;;;;;;5077855;28;20689;-78
2024/01/14 11:13:56;;;;;;;43.67;27.07;;;;;;;;;;5091336;28;20200;-78
2024/01/14 11:16:30;;;;;;;43.83;28.03;;;;;;;;;;5091831;28;20204;-78
2024/01/14 11:18:59;;;;;;;36.57;22.93;;;;;;;;;;5090684;28;20200;-78
2024/01/14 11:21:40;;;;;;;32.00;21.40;;;;;;;;;;5091511;28;20310;-78
2024/01/14 11:24:07;;;;;;;29.57;19.80;;;;;;;;;;5090894;28;20200;-78
2024/01/14 11:26:36;;;;;;;20.17;15.33;;;;;;;;;;5091261;28;20200;-78
2024/01/14 11:29:05;;;;;;;18.33;15.43;;;;;;;;;;5090820;28;20779;-78
2024/01/14 11:32:05;;;;;;;24.00;17.77;;;;;;;;;;5090907;28;20211;-78
2024/01/14 11:34:59;;;;;;;17.97;12.83;;;;;;;;;;5084108;28;20619;-78
2024/01/14 11:37:44;;;;;;;16.77;12.63;;;;;;;;;;5090981;28;20200;-78
2024/01/14 11:40:24;;;;;;;16.97;12.50;;;;;;;;;;5090115;28;20204;-78
2024/01/14 11:42:56;;;;;;;18.13;13.23;;;;;;;;;;5090322;28;20236;-78
2024/01/14 11:45:37;;;;;;;18.97;12.83;;;;;;;;;;5091332;28;20202;-78
2024/01/14 11:48:06;;;;;;;24.17;16.20;;;;;;;;;;5089563;28;20601;-78
2024/01/14 11:50:34;;;;;;;28.17;17.50;;;;;;;;;;5090178;28;20196;-78
2024/01/14 11:53:01;;;;;;;24.60;16.73;;;;;;;;;;5090252;28;20226;-78
2024/01/14 11:55:30;;;;;;;18.83;14.07;;;;;;;;;;5090804;28;20207;-78
2024/01/14 11:58:08;;;;;;;20.27;15.47;;;;;;;;;;5090573;28;20196;-78
2024/01/14 12:00:38;;;;;;;26.33;16.90;;;;;;;;;;5090351;28;20203;-78
2024/01/14 12:03:06;;;;;;;20.07;15.30;;;;;;;;;;5090121;28;20242;-78
2024/01/14 12:05:33;;;;;;;18.83;13.23;;;;;;;;;;5090546;28;20205;-78
2024/01/14 12:08:02;;;;;;;23.53;15.47;;;;;;;;;;5089421;28;20219;-78
2024/01/14 12:10:31;;;;;;;13.93;11.67;;;;;;;;;;5090266;28;20701;-78
2024/01/14 12:12:59;;;;;;;17.87;11.97;;;;;;;;;;5090398;28;20208;-78
2024/01/14 12:15:27;;;;;;;23.53;16.27;;;;;;;;;;5090532;28;20224;-78
2024/01/14 12:17:56;;;;;;;18.57;14.07;;;;;;;;;;5090260;28;20196;-78
2024/01/14 12:20:23;;;;;;;15.97;13.00;;;;;;;;;;5090523;28;20215;-78
2024/01/14 12:22:56;;;;;;;22.13;13.83;;;;;;;;;;5090056;28;20227;-79
2024/01/14 12:25:23;;;;;;;16.10;12.93;;;;;;;;;;5077717;28;20659;-78
2024/01/14 12:27:50;;;;;;;18.93;13.47;;;;;;;;;;5090043;28;20670;-79
2024/01/14 12:30:27;;;;;;;16.90;13.03;;;;;;;;;;5090081;28;20211;-78
2024/01/14 12:32:55;;;;;;;19.90;15.37;;;;;;;;;;5087731;28;20196;-78
2024/01/14 12:35:31;;;;;;;17.40;13.23;;;;;;;;;;5090189;28;20204;-77
2024/01/14 12:37:58;;;;;;;88.63;45.30;;;;;;;;;;5089682;28;20732;-78
2024/01/14 12:40:26;;;;;;;51.53;26.57;;;;;;;;;;5089583;28;20200;-78
2024/01/14 12:42:53;;;;;;;60.43;33.27;;;;;;;;;;5089461;28;20238;-76
2024/01/14 12:45:20;;;;;;;71.43;38.33;;;;;;;;;;5089659;28;20338;-78
2024/01/14 12:47:57;;;;;;;51.53;31.10;;;;;;;;;;5089071;28;20204;-76
2024/01/14 12:50:26;;;;;;;64.23;34.83;;;;;;;;;;5091302;28;20224;-76
2024/01/14 12:52:58;;;;;;;52.97;31.53;;;;;;;;;;5093924;28;20200;-76
2024/01/14 12:55:29;;;;;;;61.63;34.73;;;;;;;;;;5094091;28;20285;-76
2024/01/14 12:57:56;;;;;;;35.43;22.47;;;;;;;;;;5092973;28;20207;-76
2024/01/14 13:00:23;;;;;;;56.03;29.90;;;;;;;;;;5089315;28;20692;-77
2024/01/14 13:02:50;;;;;;;54.47;33.77;;;;;;;;;;5084332;28;20238;-80
2024/01/14 13:05:18;;;;;;;40.63;25.60;;;;;;;;;;5093315;28;20212;-77
2024/01/14 13:07:45;;;;;;;37.10;25.30;;;;;;;;;;5093664;28;20200;-77
2024/01/14 13:10:12;;;;;;;22.67;18.53;;;;;;;;;;5093081;28;20210;-76
2024/01/14 13:12:39;;;;;;;21.50;17.50;;;;;;;;;;5093047;28;20200;-76
2024/01/14 13:15:07;;;;;;;18.33;13.73;;;;;;;;;;5093697;28;20200;-77
2024/01/14 13:17:34;;;;;;;19.70;15.10;;;;;;;;;;5092742;28;20212;-77
2024/01/14 13:20:01;;;;;;;21.23;14.17;;;;;;;;;;5093190;28;20201;-76
2024/01/14 13:22:29;;;;;;;18.00;13.27;;;;;;;;;;5093120;28;20224;-77
2024/01/14 13:24:56;;;;;;;15.33;12.13;;;;;;;;;;5093348;28;20292;-77
2024/01/14 13:27:22;;;;;;;18.20;15.03;;;;;;;;;;5092960;28;20204;-79
2024/01/14 13:29:49;;;;;;;13.40;10.83;;;;;;;;;;5093174;28;20261;-77
2024/01/14 13:32:17;;;;;;;12.53;10.07;;;;;;;;;;5093174;28;20208;-77
2024/01/14 13:34:43;;;;;;;14.00;10.40;;;;;;;;;;5092982;28;20245;-77
2024/01/14 13:37:13;;;;;;;16.77;12.53;;;;;;;;;;5093069;28;20211;-77
2024/01/14 13:39:42;;;;;;;16.90;14.13;;;;;;;;;;5092103;28;20204;-77
2024/01/14 13:42:10;;;;;;;19.50;15.53;;;;;;;;;;5093098;28;20227;-75
2024/01/14 13:44:37;;;;;;;20.13;14.83;;;;;;;;;;5092600;28;20197;-77
2024/01/14 13:47:04;;;;;;;25.73;18.33;;;;;;;;;;5093100;28;20192;-77
2024/01/14 13:49:32;;;;;;;22.73;14.67;;;;;;;;;;5092601;28;20694;-77
2024/01/14 13:51:59;;;;;;;25.53;15.23;;;;;;;;;;5092328;28;20667;-77
2024/01/14 13:54:26;;;;;;;41.63;21.67;;;;;;;;;;5092069;28;20560;-77
2024/01/14 13:56:55;;;;;;;27.20;15.73;;;;;;;;;;5092426;28;20200;-79
2024/01/14 13:59:22;;;;;;;18.30;11.70;;;;;;;;;;5092426;28;20227;-77
2024/01/14 14:01:49;;;;;;;18.73;13.10;;;;;;;;;;5091984;28;20682;-77
2024/01/14 14:04:16;;;;;;;16.93;12.67;;;;;;;;;;5092282;28;20238;-77
2024/01/14 14:06:42;;;;;;;14.47;11.70;;;;;;;;;;5092685;28;20207;-77
2024/01/14 14:09:09;;;;;;;16.57;11.67;;;;;;;;;;5092224;28;20197;-77
2024/01/14 14:11:40;;;;;;;56.20;33.97;;;;;;;;;;5092156;28;20253;-77
2024/01/14 14:14:08;;;;;;;78.73;45.00;;;;;;;;;;5092534;28;20207;-77
2024/01/14 14:16:36;;;;;;;31.43;19.63;;;;;;;;;;5092017;28;20663;-77
2024/01/14 14:19:06;;;;;;;51.03;29.30;;;;;;;;;;5091898;28;20202;-77
2024/01/14 14:21:32;;;;;;;79.77;40.93;;;;;;;;;;5092256;28;20202;-78
2024/01/14 14:23:59;;;;;;;84.97;46.97;;;;;;;;;;5091810;28;20231;-77